Forside
METAR-TAF:

METAR-TAF

Lufthavne :

Stauning Lufthavn

Ringkøbing-Skjern, Danmark

Breddekreds: 56-00N, længdekreds: 008-21E, højde: 5 m

Aktuelle vejr

Denne rapport blev lavet for 27 minutter siden, kl. 20:50 UTC
Vind 4 kt fra nordnordvest, varierende mellem nordvest og nordnordøst
Temperatur 3°C
Fugtighed 75%
Tryk 1011 hPa
Sigt 10 km eller mere

METAR: EKVJ 192050Z AUTO 34004KT 320V030 9999 NCD 03/M01 Q1011 TEST

Tid: 23:17 (21:17 UTC)

Vejrudsigter

Denne rapport blev lavet for 9 timer og 25 minutter siden, kl. 11:52 UTC
Foreløbig gælder fra 19 på 12 UTC til 19 på 16 UTC
Vind 12 kt fra nordøst
Sigt 10 km eller mere
Brudte skyer i en højde af 2000 ft

TAF: EKVJ 191152Z 1912/1916 05012KT 9999 BKN020

Vejrobservationer og prognoser fra mere end 4000 lufthavne (METAR og TAF).

De gule og røde prikker repræsenterer de meteorologiske stationer.

Flyt musen over at se navnet på stationen.

Så klik over at se vejr observationer og prognoser.

At skifte det kort: Klik på de grønne knapper med et sort kors for at zoome ind; på den grønne knap med en bindestreg for at zoome ud; eller på de grønne pile for tilstødende kort.


METAR-TAF: